Time;durP1;ratioP1;P1;durP2;ratioP2;P2;SDS_P1;SDS_P2;PMS_P1;PMS_P2;Temp;Humidity;BMP_temperature;BMP_pressure;BME280_temperature;BME280_humidity;BME280_pressure;Samples;Min_cycle;Max_cycle;Signal;HPM_P1;HPM_P2
2022/06/09 00:02:37;;;;;;;4.28;3.88;;;;;;;;;;6212880;28;20251;-73
2022/06/09 00:05:57;;;;;;;4.47;4.07;;;;;;;;;;6220553;28;20764;-71
2022/06/09 00:09:19;;;;;;;4.18;3.88;;;;;;;;;;6217897;28;20221;-71
2022/06/09 00:12:40;;;;;;;5.20;4.80;;;;;;;;;;6216267;28;20610;-72
2022/06/09 00:16:02;;;;;;;6.10;4.95;;;;;;;;;;6214142;28;20549;-71
2022/06/09 00:19:23;;;;;;;4.97;4.32;;;;;;;;;;6214881;28;20236;-71
2022/06/09 00:22:44;;;;;;;5.55;5.10;;;;;;;;;;6217589;28;20229;-71
2022/06/09 00:26:05;;;;;;;4.47;4.15;;;;;;;;;;6217888;28;20233;-71
2022/06/09 00:29:26;;;;;;;5.05;4.47;;;;;;;;;;6182936;28;21953;-70
2022/06/09 00:32:48;;;;;;;5.13;4.40;;;;;;;;;;6221663;28;20610;-71
2022/06/09 00:36:08;;;;;;;5.17;4.13;;;;;;;;;;6214996;28;20233;-72
2022/06/09 00:39:29;;;;;;;3.45;3.25;;;;;;;;;;6216043;28;20228;-70
2022/06/09 00:42:49;;;;;;;4.47;4.18;;;;;;;;;;6223236;28;20287;-72
2022/06/09 00:46:14;;;;;;;4.90;4.07;;;;;;;;;;6215850;28;20227;-72
2022/06/09 00:49:38;;;;;;;6.05;4.50;;;;;;;;;;6212305;28;20237;-72
2022/06/09 00:53:02;;;;;;;3.42;3.13;;;;;;;;;;6211236;28;20233;-72
2022/06/09 00:56:23;;;;;;;4.30;3.90;;;;;;;;;;6211614;28;20371;-71
2022/06/09 00:59:45;;;;;;;6.95;4.53;;;;;;;;;;6217788;28;20235;-72
2022/06/09 01:03:06;;;;;;;4.80;4.30;;;;;;;;;;6213735;28;20233;-71
2022/06/09 01:06:31;;;;;;;4.72;4.20;;;;;;;;;;6212225;28;20228;-71
2022/06/09 01:09:51;;;;;;;5.35;4.13;;;;;;;;;;6213150;28;20236;-71
2022/06/09 01:13:12;;;;;;;5.53;5.13;;;;;;;;;;6211634;28;20825;-70
2022/06/09 01:16:38;;;;;;;6.03;5.03;;;;;;;;;;6214691;28;20572;-71
2022/06/09 01:20:07;;;;;;;5.87;5.33;;;;;;;;;;6212372;28;20308;-68
2022/06/09 01:23:48;;;;;;;6.30;5.70;;;;;;;;;;6209260;28;20224;-70
2022/06/09 01:27:17;;;;;;;6.17;5.77;;;;;;;;;;6214804;28;20617;-70
2022/06/09 01:30:43;;;;;;;7.37;6.57;;;;;;;;;;6221190;28;20518;-70
2022/06/09 01:34:06;;;;;;;7.25;6.55;;;;;;;;;;6221259;28;20228;-70
2022/06/09 01:37:30;;;;;;;6.53;6.00;;;;;;;;;;6216771;28;20249;-70
2022/06/09 01:40:50;;;;;;;6.18;5.68;;;;;;;;;;6220392;28;20255;-70
2022/06/09 01:44:11;;;;;;;6.87;6.17;;;;;;;;;;6220334;28;20347;-71
2022/06/09 01:47:38;;;;;;;6.28;5.57;;;;;;;;;;6214996;28;20225;-70
2022/06/09 01:51:00;;;;;;;7.67;5.57;;;;;;;;;;6220801;28;20267;-71
2022/06/09 01:54:23;;;;;;;9.05;7.13;;;;;;;;;;6220952;28;20236;-70
2022/06/09 01:57:44;;;;;;;5.93;5.38;;;;;;;;;;6215974;28;20258;-70
2022/06/09 02:01:05;;;;;;;6.30;5.70;;;;;;;;;;6218621;28;20661;-70
2022/06/09 02:04:32;;;;;;;6.22;5.55;;;;;;;;;;6219025;28;20248;-70
2022/06/09 02:07:55;;;;;;;5.13;4.73;;;;;;;;;;6216918;28;20236;-70
2022/06/09 02:11:16;;;;;;;6.57;5.53;;;;;;;;;;6217340;28;20618;-71
2022/06/09 02:14:37;;;;;;;6.77;6.07;;;;;;;;;;6219071;28;22776;-70
2022/06/09 02:17:58;;;;;;;5.32;4.88;;;;;;;;;;6219009;28;20245;-70
2022/06/09 02:21:23;;;;;;;6.18;5.68;;;;;;;;;;6217125;28;20614;-70
2022/06/09 02:24:44;;;;;;;5.53;4.93;;;;;;;;;;6219228;28;20534;-71
2022/06/09 02:28:05;;;;;;;6.53;5.73;;;;;;;;;;6222893;28;20232;-71
2022/06/09 02:31:25;;;;;;;5.93;5.43;;;;;;;;;;6218643;28;20243;-71
2022/06/09 02:34:46;;;;;;;6.17;5.07;;;;;;;;;;6220665;28;20253;-71
2022/06/09 02:38:08;;;;;;;4.70;4.30;;;;;;;;;;6219757;28;20637;-71
2022/06/09 02:41:29;;;;;;;4.93;4.53;;;;;;;;;;6218060;28;20225;-70
2022/06/09 02:44:49;;;;;;;5.03;4.53;;;;;;;;;;6219553;28;20315;-71
2022/06/09 02:48:12;;;;;;;4.93;4.50;;;;;;;;;;6221356;28;20618;-70
2022/06/09 02:51:33;;;;;;;4.33;3.70;;;;;;;;;;6215667;28;20227;-70
2022/06/09 02:54:55;;;;;;;4.77;4.00;;;;;;;;;;6217191;28;20232;-70
2022/06/09 02:58:15;;;;;;;5.53;4.37;;;;;;;;;;6218642;28;20244;-71
2022/06/09 03:01:37;;;;;;;3.87;3.57;;;;;;;;;;6209971;28;21868;-71
2022/06/09 03:04:58;;;;;;;4.87;3.23;;;;;;;;;;6215983;28;20232;-72
2022/06/09 03:08:18;;;;;;;4.00;3.70;;;;;;;;;;6217319;28;20236;-71
2022/06/09 03:11:40;;;;;;;6.32;4.15;;;;;;;;;;6214019;28;20236;-71
2022/06/09 03:15:01;;;;;;;4.90;3.50;;;;;;;;;;6217566;28;20233;-71
2022/06/09 03:18:22;;;;;;;5.70;3.90;;;;;;;;;;6210926;28;20344;-71
2022/06/09 03:21:42;;;;;;;4.87;4.47;;;;;;;;;;6204366;28;20323;-71
2022/06/09 03:25:03;;;;;;;6.07;4.97;;;;;;;;;;6209834;28;20244;-71
2022/06/09 03:28:25;;;;;;;4.80;4.37;;;;;;;;;;6202572;28;20312;-70
2022/06/09 03:31:46;;;;;;;5.75;4.50;;;;;;;;;;6215205;28;20233;-70
2022/06/09 03:35:08;;;;;;;5.75;5.25;;;;;;;;;;6214065;28;20229;-71
2022/06/09 03:38:28;;;;;;;5.27;4.80;;;;;;;;;;6186959;28;20232;-71
2022/06/09 03:41:49;;;;;;;4.80;4.40;;;;;;;;;;6213586;28;20264;-69
2022/06/09 03:45:11;;;;;;;4.60;4.20;;;;;;;;;;6214209;28;20232;-71
2022/06/09 03:48:32;;;;;;;4.88;4.55;;;;;;;;;;6214552;28;20264;-72
2022/06/09 03:51:53;;;;;;;5.17;4.67;;;;;;;;;;6216029;28;20225;-72
2022/06/09 03:55:13;;;;;;;6.10;5.57;;;;;;;;;;6213521;28;20220;-72
2022/06/09 03:58:34;;;;;;;6.32;5.82;;;;;;;;;;6211186;28;20265;-71
2022/06/09 04:01:56;;;;;;;7.37;6.67;;;;;;;;;;6213102;28;20350;-72
2022/06/09 04:05:17;;;;;;;6.93;6.30;;;;;;;;;;6210849;28;20241;-72
2022/06/09 04:08:38;;;;;;;6.70;6.10;;;;;;;;;;6214088;28;20233;-72
2022/06/09 04:11:59;;;;;;;6.67;6.07;;;;;;;;;;6210968;28;20232;-70
2022/06/09 04:15:20;;;;;;;7.63;6.73;;;;;;;;;;6214604;28;20232;-70
2022/06/09 04:18:42;;;;;;;7.73;7.03;;;;;;;;;;6211097;28;20512;-70
2022/06/09 04:22:03;;;;;;;10.47;8.40;;;;;;;;;;6212307;28;20618;-70
2022/06/09 04:25:23;;;;;;;10.93;9.00;;;;;;;;;;6217024;28;20342;-70
2022/06/09 04:28:44;;;;;;;9.13;7.87;;;;;;;;;;6215696;28;22940;-70
2022/06/09 04:32:06;;;;;;;10.67;9.77;;;;;;;;;;6211637;28;20756;-71
2022/06/09 04:35:27;;;;;;;11.37;10.23;;;;;;;;;;6216558;28;20228;-69
2022/06/09 04:38:48;;;;;;;10.67;9.63;;;;;;;;;;6214389;28;23245;-71
2022/06/09 04:42:09;;;;;;;11.70;10.60;;;;;;;;;;6212110;28;20236;-71
2022/06/09 04:45:29;;;;;;;12.70;11.40;;;;;;;;;;6211228;28;20344;-70
2022/06/09 04:48:50;;;;;;;11.63;10.63;;;;;;;;;;6214513;28;20236;-70
2022/06/09 04:52:12;;;;;;;11.77;10.57;;;;;;;;;;6212032;28;20257;-71
2022/06/09 04:55:33;;;;;;;11.57;10.63;;;;;;;;;;6209941;28;20240;-71
2022/06/09 04:58:54;;;;;;;10.40;9.40;;;;;;;;;;6211149;28;20224;-71
2022/06/09 05:02:15;;;;;;;12.07;10.83;;;;;;;;;;6213362;28;20228;-71
2022/06/09 05:05:35;;;;;;;12.33;11.20;;;;;;;;;;6216939;28;20236;-71
2022/06/09 05:08:58;;;;;;;13.83;12.53;;;;;;;;;;6218075;28;20312;-71
2022/06/09 05:12:18;;;;;;;14.57;13.23;;;;;;;;;;6216188;28;20240;-71
2022/06/09 05:15:44;;;;;;;13.30;12.10;;;;;;;;;;6216376;28;20231;-70
2022/06/09 05:19:05;;;;;;;15.87;13.43;;;;;;;;;;6220175;28;20256;-70
2022/06/09 05:22:26;;;;;;;14.87;13.47;;;;;;;;;;6223217;28;20232;-71
2022/06/09 05:25:48;;;;;;;16.37;13.30;;;;;;;;;;6224188;28;20236;-70
2022/06/09 05:29:09;;;;;;;16.90;15.20;;;;;;;;;;6214000;28;20256;-70
2022/06/09 05:32:29;;;;;;;18.13;16.13;;;;;;;;;;6194755;28;20500;-71
2022/06/09 05:35:50;;;;;;;18.67;16.93;;;;;;;;;;6223477;28;20920;-71
2022/06/09 05:46:28;;;;;;;19.45;15.50;;;;;;;;;;6211687;28;20595;-71
2022/06/09 05:49:49;;;;;;;16.03;14.00;;;;;;;;;;6213197;28;20233;-72
2022/06/09 05:53:10;;;;;;;12.70;11.63;;;;;;;;;;6209927;28;20569;-71
2022/06/09 05:56:31;;;;;;;12.73;10.40;;;;;;;;;;6215262;28;20229;-71
2022/06/09 05:59:54;;;;;;;12.47;10.27;;;;;;;;;;6211832;28;20256;-72
2022/06/09 06:03:15;;;;;;;13.00;11.67;;;;;;;;;;6205554;28;20236;-73
2022/06/09 06:06:36;;;;;;;11.03;9.60;;;;;;;;;;6214678;28;20248;-73
2022/06/09 06:09:56;;;;;;;9.55;8.40;;;;;;;;;;6213405;28;20228;-73
2022/06/09 06:13:17;;;;;;;11.03;9.23;;;;;;;;;;6215817;28;20228;-73
2022/06/09 06:16:39;;;;;;;10.80;8.38;;;;;;;;;;6217475;28;20228;-73
2022/06/09 06:20:00;;;;;;;10.05;8.65;;;;;;;;;;6216349;28;20230;-72
2022/06/09 06:23:20;;;;;;;10.38;9.25;;;;;;;;;;6205064;28;20233;-72
2022/06/09 06:26:41;;;;;;;9.60;8.63;;;;;;;;;;6215530;28;20236;-73
2022/06/09 06:30:01;;;;;;;9.80;8.40;;;;;;;;;;6205957;28;21187;-72
2022/06/09 06:33:23;;;;;;;13.77;9.00;;;;;;;;;;6213330;28;20232;-72
2022/06/09 06:36:44;;;;;;;8.55;7.75;;;;;;;;;;6220458;28;20325;-73
2022/06/09 06:40:05;;;;;;;7.57;6.17;;;;;;;;;;6213061;28;20233;-72
2022/06/09 06:43:26;;;;;;;6.27;4.90;;;;;;;;;;6221443;28;20248;-73
2022/06/09 06:46:47;;;;;;;5.97;5.43;;;;;;;;;;6217098;28;20232;-73
2022/06/09 06:50:10;;;;;;;5.35;4.85;;;;;;;;;;6207427;28;20753;-73
2022/06/09 06:53:30;;;;;;;4.03;3.73;;;;;;;;;;6211470;28;21640;-72
2022/06/09 06:56:51;;;;;;;4.00;3.70;;;;;;;;;;6214280;28;20941;-72
2022/06/09 07:00:14;;;;;;;4.50;4.10;;;;;;;;;;6211618;28;20232;-74
2022/06/09 07:03:34;;;;;;;4.60;3.90;;;;;;;;;;6218107;28;20555;-73
2022/06/09 07:06:56;;;;;;;4.87;4.50;;;;;;;;;;6215472;28;20237;-74
2022/06/09 07:10:18;;;;;;;4.63;4.23;;;;;;;;;;6221007;28;20244;-73
2022/06/09 07:13:38;;;;;;;4.20;3.90;;;;;;;;;;6218755;28;20502;-73
2022/06/09 07:16:59;;;;;;;5.35;4.80;;;;;;;;;;6214760;28;20517;-72
2022/06/09 07:20:20;;;;;;;5.82;5.22;;;;;;;;;;6215249;28;20971;-73
2022/06/09 07:23:42;;;;;;;5.18;4.78;;;;;;;;;;6214222;28;20224;-72
2022/06/09 07:27:03;;;;;;;8.32;6.72;;;;;;;;;;6213849;28;20323;-72
2022/06/09 07:30:24;;;;;;;6.68;5.93;;;;;;;;;;6214358;28;20236;-72
2022/06/09 07:33:45;;;;;;;8.47;6.80;;;;;;;;;;6216821;28;20862;-71
2022/06/09 07:37:06;;;;;;;6.88;6.38;;;;;;;;;;6211103;28;20240;-73
2022/06/09 07:40:28;;;;;;;7.45;6.85;;;;;;;;;;6205315;28;20221;-73
2022/06/09 07:43:49;;;;;;;7.20;6.30;;;;;;;;;;6198181;28;20240;-72
2022/06/09 07:47:09;;;;;;;6.55;5.95;;;;;;;;;;6194550;28;20233;-71
2022/06/09 07:50:31;;;;;;;8.60;7.63;;;;;;;;;;6192007;28;20233;-72
2022/06/09 07:53:51;;;;;;;8.07;7.28;;;;;;;;;;6210704;28;20241;-70
2022/06/09 07:57:13;;;;;;;8.93;8.02;;;;;;;;;;6211724;28;20237;-71
2022/06/09 08:00:34;;;;;;;9.57;8.45;;;;;;;;;;6218900;28;20232;-72
2022/06/09 08:03:55;;;;;;;11.10;8.80;;;;;;;;;;6212020;28;20505;-72
2022/06/09 08:07:15;;;;;;;9.05;8.32;;;;;;;;;;6195194;28;20236;-70
2022/06/09 08:10:38;;;;;;;11.02;9.93;;;;;;;;;;6221833;28;20232;-73
2022/06/09 08:14:01;;;;;;;10.07;9.27;;;;;;;;;;6214343;28;20228;-73
2022/06/09 08:17:22;;;;;;;10.33;9.43;;;;;;;;;;6217487;28;20229;-72
2022/06/09 08:20:43;;;;;;;11.77;10.57;;;;;;;;;;6208140;28;20225;-72
2022/06/09 08:24:04;;;;;;;10.87;9.90;;;;;;;;;;6217003;28;20229;-76
2022/06/09 08:27:25;;;;;;;10.63;9.40;;;;;;;;;;6214901;28;20350;-70
2022/06/09 08:30:48;;;;;;;9.27;8.45;;;;;;;;;;6210704;28;20225;-68
2022/06/09 08:34:09;;;;;;;9.07;8.27;;;;;;;;;;6208248;28;20543;-69
2022/06/09 08:37:30;;;;;;;10.55;9.30;;;;;;;;;;6208543;28;20228;-69
2022/06/09 08:40:54;;;;;;;12.10;9.20;;;;;;;;;;6217311;28;20254;-71
2022/06/09 08:44:17;;;;;;;11.18;10.15;;;;;;;;;;6206571;28;20233;-70
2022/06/09 08:47:40;;;;;;;10.83;9.83;;;;;;;;;;6201726;28;20228;-68
2022/06/09 08:51:03;;;;;;;14.17;10.60;;;;;;;;;;6206358;28;21691;-69
2022/06/09 08:54:27;;;;;;;13.10;10.25;;;;;;;;;;6207875;28;20855;-66
2022/06/09 08:57:47;;;;;;;11.10;9.67;;;;;;;;;;6200804;28;20315;-68
2022/06/09 09:01:24;;;;;;;11.23;10.13;;;;;;;;;;6218283;28;20224;-69
2022/06/09 09:04:48;;;;;;;14.25;10.45;;;;;;;;;;6215047;28;20237;-71
2022/06/09 09:08:09;;;;;;;12.07;10.63;;;;;;;;;;6211509;28;20228;-69
2022/06/09 09:11:37;;;;;;;10.27;9.10;;;;;;;;;;6210890;28;20268;-71
2022/06/09 09:15:03;;;;;;;10.75;8.38;;;;;;;;;;6210017;28;20232;-72
2022/06/09 09:18:29;;;;;;;13.55;8.95;;;;;;;;;;6205176;28;20487;-71
2022/06/09 09:21:58;;;;;;;8.77;7.97;;;;;;;;;;6209107;28;20492;-72
2022/06/09 09:25:23;;;;;;;8.60;7.15;;;;;;;;;;6206734;28;22429;-71
2022/06/09 09:28:47;;;;;;;8.18;7.30;;;;;;;;;;6209459;28;20236;-74
2022/06/09 09:32:10;;;;;;;7.65;6.85;;;;;;;;;;6202563;28;20241;-72
2022/06/09 09:35:33;;;;;;;7.97;7.13;;;;;;;;;;6206225;28;20228;-72
2022/06/09 09:38:56;;;;;;;8.63;7.53;;;;;;;;;;6203854;28;20257;-75
2022/06/09 09:42:19;;;;;;;7.93;7.15;;;;;;;;;;6195575;28;20237;-69
2022/06/09 09:45:41;;;;;;;8.38;7.57;;;;;;;;;;6210810;28;20228;-69
2022/06/09 09:49:15;;;;;;;7.53;6.78;;;;;;;;;;6215721;28;20286;-67
2022/06/09 09:52:39;;;;;;;7.82;7.13;;;;;;;;;;6223681;28;20228;-68
2022/06/09 09:56:02;;;;;;;10.90;7.63;;;;;;;;;;6219117;28;20236;-68
2022/06/09 09:59:24;;;;;;;6.45;5.90;;;;;;;;;;6215425;28;20260;-70
2022/06/09 10:10:08;;;;;;;8.73;7.93;;;;;;;;;;6222244;28;20232;-73
2022/06/09 10:13:31;;;;;;;8.55;7.30;;;;;;;;;;6224782;28;20264;-68
2022/06/09 10:16:53;;;;;;;8.60;6.72;;;;;;;;;;6216344;28;20244;-71
2022/06/09 10:20:19;;;;;;;7.57;6.85;;;;;;;;;;6223114;28;20232;-71
2022/06/09 10:23:45;;;;;;;7.90;7.25;;;;;;;;;;6201352;28;20232;-70
2022/06/09 10:27:07;;;;;;;7.10;6.40;;;;;;;;;;6214310;28;20230;-71
2022/06/09 10:30:33;;;;;;;9.23;8.35;;;;;;;;;;6213104;28;20335;-74
2022/06/09 10:33:57;;;;;;;8.48;7.78;;;;;;;;;;6214743;28;20237;-72
2022/06/09 10:37:25;;;;;;;8.75;7.78;;;;;;;;;;6216779;28;20251;-71
2022/06/09 10:40:47;;;;;;;6.63;6.10;;;;;;;;;;6224231;28;20229;-73
2022/06/09 10:44:12;;;;;;;6.85;6.28;;;;;;;;;;6215644;28;20229;-73
2022/06/09 10:55:17;;;;;;;8.02;5.45;;;;;;;;;;6224405;28;20224;-73
2022/06/09 10:58:40;;;;;;;5.53;5.13;;;;;;;;;;6217145;28;20245;-72
2022/06/09 11:02:00;;;;;;;7.22;6.63;;;;;;;;;;6218776;28;20226;-72
2022/06/09 11:05:30;;;;;;;6.05;5.50;;;;;;;;;;6216535;28;20260;-72
2022/06/09 11:08:55;;;;;;;6.60;6.00;;;;;;;;;;6227252;28;20244;-72
2022/06/09 11:12:22;;;;;;;7.40;5.03;;;;;;;;;;6218765;28;20237;-72
2022/06/09 11:15:49;;;;;;;4.90;4.40;;;;;;;;;;6205315;28;20232;-71
2022/06/09 11:19:19;;;;;;;4.80;4.40;;;;;;;;;;6219087;28;20244;-73
2022/06/09 11:22:45;;;;;;;5.60;5.10;;;;;;;;;;6214878;28;20238;-74
2022/06/09 11:26:12;;;;;;;4.00;3.67;;;;;;;;;;6222942;28;21000;-76
2022/06/09 11:29:44;;;;;;;4.93;4.45;;;;;;;;;;6218049;28;20224;-76
2022/06/09 11:33:16;;;;;;;4.93;4.22;;;;;;;;;;6219070;28;20244;-74
2022/06/09 11:36:41;;;;;;;4.72;4.32;;;;;;;;;;6219255;28;20685;-74
2022/06/09 11:40:11;;;;;;;3.50;3.22;;;;;;;;;;6205354;28;20224;-73
2022/06/09 11:43:45;;;;;;;3.30;3.10;;;;;;;;;;6215375;28;20233;-73
2022/06/09 11:47:09;;;;;;;3.03;2.83;;;;;;;;;;6219060;28;20229;-74
2022/06/09 11:50:32;;;;;;;4.28;3.72;;;;;;;;;;6221017;28;20228;-72
2022/06/09 11:53:54;;;;;;;2.83;2.63;;;;;;;;;;6221056;28;20232;-73
2022/06/09 11:57:21;;;;;;;6.57;2.80;;;;;;;;;;6218163;28;20232;-72
2022/06/09 12:00:43;;;;;;;3.05;2.85;;;;;;;;;;6216959;28;20248;-74
2022/06/09 12:04:24;;;;;;;2.80;2.60;;;;;;;;;;6215539;28;20233;-73
2022/06/09 12:08:05;;;;;;;2.55;2.35;;;;;;;;;;6216354;28;20228;-75
2022/06/09 12:11:46;;;;;;;4.35;3.05;;;;;;;;;;6221020;28;20236;-72
2022/06/09 12:15:28;;;;;;;3.08;2.88;;;;;;;;;;6215523;28;20336;-74
2022/06/09 12:18:59;;;;;;;3.03;2.78;;;;;;;;;;6217152;28;20638;-75
2022/06/09 12:22:45;;;;;;;4.32;2.50;;;;;;;;;;6212329;28;20750;-73
2022/06/09 12:26:19;;;;;;;3.60;3.05;;;;;;;;;;6215700;28;20240;-72
2022/06/09 12:29:43;;;;;;;3.05;2.85;;;;;;;;;;6210762;28;20457;-73
2022/06/09 12:33:22;;;;;;;2.90;2.60;;;;;;;;;;6219566;28;20232;-78
2022/06/09 12:36:49;;;;;;;4.80;3.08;;;;;;;;;;6218184;28;20228;-73
2022/06/09 12:40:16;;;;;;;2.83;2.63;;;;;;;;;;6198948;28;20236;-71
2022/06/09 12:43:39;;;;;;;2.95;2.75;;;;;;;;;;6218335;28;20236;-71
2022/06/09 12:47:01;;;;;;;2.53;2.33;;;;;;;;;;6217196;28;20317;-71
2022/06/09 12:50:23;;;;;;;2.60;2.50;;;;;;;;;;6213085;28;20307;-71
2022/06/09 12:53:51;;;;;;;3.85;2.97;;;;;;;;;;6219506;28;20345;-71
2022/06/09 12:57:15;;;;;;;2.60;2.40;;;;;;;;;;6207484;28;20518;-71
2022/06/09 13:00:37;;;;;;;3.58;3.28;;;;;;;;;;6220665;28;20238;-72
2022/06/09 13:03:59;;;;;;;3.13;2.45;;;;;;;;;;6213156;28;20224;-72
2022/06/09 13:07:22;;;;;;;2.45;2.25;;;;;;;;;;6216197;28;20236;-70
2022/06/09 13:10:46;;;;;;;2.25;2.03;;;;;;;;;;6210907;28;20256;-71
2022/06/09 13:14:06;;;;;;;2.95;2.25;;;;;;;;;;6212789;28;20331;-71
2022/06/09 13:17:29;;;;;;;2.10;1.92;;;;;;;;;;6217711;28;20652;-73
2022/06/09 13:20:52;;;;;;;2.33;1.95;;;;;;;;;;6222358;28;20244;-73
2022/06/09 13:24:16;;;;;;;1.40;1.38;;;;;;;;;;6225887;28;20224;-74
2022/06/09 13:27:41;;;;;;;2.25;1.90;;;;;;;;;;6223732;28;20240;-70
2022/06/09 13:31:03;;;;;;;1.55;1.30;;;;;;;;;;6221030;28;20676;-72
2022/06/09 13:34:26;;;;;;;3.50;2.47;;;;;;;;;;6190208;28;20229;-71
2022/06/09 13:37:46;;;;;;;2.35;1.50;;;;;;;;;;6223202;28;20225;-73
2022/06/09 13:41:10;;;;;;;1.73;1.60;;;;;;;;;;6229186;28;20228;-74
2022/06/09 13:44:34;;;;;;;1.58;1.40;;;;;;;;;;6224370;28;20225;-74
2022/06/09 13:48:07;;;;;;;2.33;1.63;;;;;;;;;;6218747;28;20535;-76
2022/06/09 13:51:30;;;;;;;3.72;1.83;;;;;;;;;;6219949;28;20709;-75
2022/06/09 13:54:52;;;;;;;3.15;1.83;;;;;;;;;;6222810;28;21332;-72
2022/06/09 13:58:12;;;;;;;1.98;1.73;;;;;;;;;;6219299;28;20229;-70
2022/06/09 14:01:34;;;;;;;3.47;1.55;;;;;;;;;;6226706;28;20232;-70
2022/06/09 14:04:55;;;;;;;1.73;1.63;;;;;;;;;;6222477;28;20233;-70
2022/06/09 14:08:16;;;;;;;2.17;1.75;;;;;;;;;;6226889;28;20249;-71
2022/06/09 14:11:37;;;;;;;3.85;1.98;;;;;;;;;;6224468;28;20245;-71
2022/06/09 14:14:58;;;;;;;1.73;1.63;;;;;;;;;;6224072;28;20237;-71
2022/06/09 14:18:21;;;;;;;1.95;1.60;;;;;;;;;;6219037;28;20232;-70
2022/06/09 14:21:42;;;;;;;2.60;1.60;;;;;;;;;;6214469;28;20236;-72
2022/06/09 14:25:02;;;;;;;2.10;1.90;;;;;;;;;;6226879;28;20693;-74
2022/06/09 14:28:23;;;;;;;2.65;1.48;;;;;;;;;;6222472;28;20249;-72
2022/06/09 14:31:45;;;;;;;2.25;1.60;;;;;;;;;;6228072;28;20221;-72
2022/06/09 14:35:07;;;;;;;3.78;1.48;;;;;;;;;;6224728;28;20229;-74
2022/06/09 14:38:28;;;;;;;1.35;1.25;;;;;;;;;;6225092;28;20229;-72
2022/06/09 14:41:49;;;;;;;3.22;1.67;;;;;;;;;;6227504;28;20229;-71
2022/06/09 14:45:10;;;;;;;1.13;0.98;;;;;;;;;;6220927;28;21226;-73
2022/06/09 14:48:31;;;;;;;1.52;1.27;;;;;;;;;;6230991;28;20343;-73
2022/06/09 14:51:53;;;;;;;1.80;1.35;;;;;;;;;;6222897;28;20854;-73
2022/06/09 14:55:14;;;;;;;2.15;2.05;;;;;;;;;;6225300;28;20256;-71
2022/06/09 14:58:34;;;;;;;2.40;0.70;;;;;;;;;;6226892;28;20224;-72
2022/06/09 15:01:56;;;;;;;2.92;0.93;;;;;;;;;;6219290;28;20699;-72
2022/06/09 15:05:17;;;;;;;3.03;0.88;;;;;;;;;;6217473;28;20224;-72
2022/06/09 15:08:40;;;;;;;1.70;1.10;;;;;;;;;;6215565;28;20670;-72
2022/06/09 15:12:00;;;;;;;4.05;1.20;;;;;;;;;;6223401;28;20224;-72
2022/06/09 15:15:22;;;;;;;1.33;0.60;;;;;;;;;;6227773;28;20625;-74
2022/06/09 15:18:43;;;;;;;3.10;1.02;;;;;;;;;;6213025;28;20228;-73
2022/06/09 15:22:04;;;;;;;3.00;1.83;;;;;;;;;;6226579;28;20229;-72
2022/06/09 15:25:26;;;;;;;2.10;1.38;;;;;;;;;;6220274;28;20224;-71
2022/06/09 15:28:47;;;;;;;1.60;0.73;;;;;;;;;;6220555;28;20233;-71
2022/06/09 15:32:08;;;;;;;4.03;1.23;;;;;;;;;;6226472;28;20220;-71
2022/06/09 15:35:29;;;;;;;5.70;2.67;;;;;;;;;;6223687;28;20237;-71
2022/06/09 15:38:49;;;;;;;1.90;1.17;;;;;;;;;;6225868;28;20321;-71
2022/06/09 15:42:11;;;;;;;1.92;1.23;;;;;;;;;;6208777;28;20550;-70
2022/06/09 15:45:36;;;;;;;4.40;1.60;;;;;;;;;;6211759;28;20221;-69
2022/06/09 15:48:56;;;;;;;2.60;1.27;;;;;;;;;;6223983;28;20618;-71
2022/06/09 15:52:17;;;;;;;1.85;1.00;;;;;;;;;;6217639;28;20618;-69
2022/06/09 15:55:37;;;;;;;2.95;2.75;;;;;;;;;;6226023;28;20638;-69
2022/06/09 15:59:00;;;;;;;2.33;1.30;;;;;;;;;;6223999;28;20332;-70
2022/06/09 16:02:20;;;;;;;3.25;1.67;;;;;;;;;;6226848;28;20240;-70
2022/06/09 16:05:41;;;;;;;1.63;1.52;;;;;;;;;;6216409;28;20228;-69
2022/06/09 16:09:02;;;;;;;2.00;1.13;;;;;;;;;;6223183;28;20221;-69
2022/06/09 16:12:24;;;;;;;3.33;1.20;;;;;;;;;;6223492;28;20252;-70
2022/06/09 16:15:46;;;;;;;3.00;1.45;;;;;;;;;;6221756;28;20229;-68
2022/06/09 16:19:07;;;;;;;3.05;1.77;;;;;;;;;;6223738;28;20229;-69
2022/06/09 16:22:27;;;;;;;3.13;1.50;;;;;;;;;;6227918;28;20672;-68
2022/06/09 16:25:48;;;;;;;3.33;1.70;;;;;;;;;;6213247;28;20224;-70
2022/06/09 16:29:09;;;;;;;4.05;2.05;;;;;;;;;;6206922;28;20339;-70
2022/06/09 16:32:31;;;;;;;6.43;3.58;;;;;;;;;;6209951;28;20240;-70
2022/06/09 16:35:53;;;;;;;9.40;2.63;;;;;;;;;;6222294;28;20232;-71
2022/06/09 16:39:14;;;;;;;3.88;3.47;;;;;;;;;;6226891;28;20247;-70
2022/06/09 16:42:35;;;;;;;2.15;1.20;;;;;;;;;;6225576;28;20232;-70
2022/06/09 16:45:55;;;;;;;3.50;1.95;;;;;;;;;;6227503;28;20540;-69
2022/06/09 16:49:17;;;;;;;2.50;2.03;;;;;;;;;;6215233;28;20619;-70
2022/06/09 16:52:38;;;;;;;3.88;1.48;;;;;;;;;;6213237;28;20229;-68
2022/06/09 16:55:59;;;;;;;3.42;2.00;;;;;;;;;;6214862;28;21015;-69
2022/06/09 16:59:20;;;;;;;3.00;1.80;;;;;;;;;;6225857;28;20232;-71
2022/06/09 17:02:41;;;;;;;8.70;6.97;;;;;;;;;;6223385;28;20231;-70
2022/06/09 17:06:05;;;;;;;10.98;8.15;;;;;;;;;;6234270;28;20473;-69
2022/06/09 17:09:27;;;;;;;6.78;5.72;;;;;;;;;;6228153;28;20767;-69
2022/06/09 17:12:48;;;;;;;9.45;8.55;;;;;;;;;;6225200;28;20229;-69
2022/06/09 17:16:08;;;;;;;8.57;7.72;;;;;;;;;;6230959;28;20252;-68
2022/06/09 17:19:29;;;;;;;3.33;2.20;;;;;;;;;;6220019;28;20288;-68
2022/06/09 17:22:51;;;;;;;3.88;2.30;;;;;;;;;;6213740;28;20240;-69
2022/06/09 17:26:15;;;;;;;6.18;1.95;;;;;;;;;;6224340;28;20239;-68
2022/06/09 17:29:37;;;;;;;5.28;2.38;;;;;;;;;;6213603;28;20613;-67
2022/06/09 17:32:59;;;;;;;5.35;2.38;;;;;;;;;;6222933;28;20282;-68
2022/06/09 17:36:19;;;;;;;5.05;2.67;;;;;;;;;;6219903;28;20225;-69
2022/06/09 17:39:41;;;;;;;2.95;2.17;;;;;;;;;;6218966;28;20747;-68
2022/06/09 17:43:02;;;;;;;4.13;2.70;;;;;;;;;;6216469;28;20251;-67
2022/06/09 17:46:22;;;;;;;3.53;2.63;;;;;;;;;;6218384;28;20228;-70
2022/06/09 17:49:43;;;;;;;5.32;2.65;;;;;;;;;;6217466;28;20232;-69
2022/06/09 17:53:04;;;;;;;5.30;2.20;;;;;;;;;;6214836;28;20544;-69
2022/06/09 17:56:29;;;;;;;3.47;2.00;;;;;;;;;;6224573;28;20645;-69
2022/06/09 17:59:50;;;;;;;5.38;2.33;;;;;;;;;;6224054;28;20618;-69
2022/06/09 18:03:10;;;;;;;2.45;2.13;;;;;;;;;;6222480;28;20240;-69
2022/06/09 18:06:31;;;;;;;4.05;2.65;;;;;;;;;;6217819;28;20229;-70
2022/06/09 18:09:52;;;;;;;5.88;3.08;;;;;;;;;;6227942;28;20221;-70
2022/06/09 18:13:14;;;;;;;4.75;2.28;;;;;;;;;;6214206;28;22984;-69
2022/06/09 18:16:35;;;;;;;4.20;2.30;;;;;;;;;;6212514;28;20236;-69
2022/06/09 18:19:56;;;;;;;3.03;2.13;;;;;;;;;;6214336;28;20256;-69
2022/06/09 18:23:17;;;;;;;6.78;2.20;;;;;;;;;;6213342;28;20707;-68
2022/06/09 18:26:37;;;;;;;3.83;2.80;;;;;;;;;;6193215;28;20315;-70
2022/06/09 18:29:59;;;;;;;8.98;3.00;;;;;;;;;;6194287;28;20229;-70
2022/06/09 18:33:20;;;;;;;5.60;4.03;;;;;;;;;;6197510;28;20225;-71
2022/06/09 18:36:40;;;;;;;6.70;2.40;;;;;;;;;;6191630;28;20513;-70
2022/06/09 18:40:01;;;;;;;8.23;2.33;;;;;;;;;;6195302;28;20260;-71
2022/06/09 18:43:23;;;;;;;6.32;2.45;;;;;;;;;;6187837;28;20236;-69
2022/06/09 18:46:44;;;;;;;5.38;3.00;;;;;;;;;;6195344;28;20240;-70
2022/06/09 18:50:06;;;;;;;5.60;2.35;;;;;;;;;;6178324;28;20560;-69
2022/06/09 18:53:27;;;;;;;11.50;3.33;;;;;;;;;;6189097;28;20236;-70
2022/06/09 18:56:48;;;;;;;2.58;2.00;;;;;;;;;;6208405;28;20232;-70
2022/06/09 19:00:11;;;;;;;7.80;2.90;;;;;;;;;;6198215;28;20327;-67
2022/06/09 19:03:34;;;;;;;4.85;2.55;;;;;;;;;;6220556;28;20252;-69
2022/06/09 19:06:55;;;;;;;5.50;3.35;;;;;;;;;;6222968;28;20229;-69
2022/06/09 19:10:18;;;;;;;6.68;3.63;;;;;;;;;;6223063;28;20232;-70
2022/06/09 19:13:39;;;;;;;9.55;2.92;;;;;;;;;;6217735;28;20228;-69
2022/06/09 19:17:00;;;;;;;8.77;2.70;;;;;;;;;;6214555;28;20228;-69
2022/06/09 19:20:22;;;;;;;8.50;2.72;;;;;;;;;;6224937;28;20270;-69
2022/06/09 19:23:43;;;;;;;5.65;3.28;;;;;;;;;;6221297;28;20236;-70
2022/06/09 19:27:06;;;;;;;7.40;3.00;;;;;;;;;;6219044;28;20259;-70
2022/06/09 19:30:28;;;;;;;7.75;3.45;;;;;;;;;;6221016;28;20228;-70
2022/06/09 19:33:48;;;;;;;4.03;2.30;;;;;;;;;;6222078;28;20236;-69
2022/06/09 19:37:16;;;;;;;5.90;2.60;;;;;;;;;;6217829;28;20568;-70
2022/06/09 19:40:37;;;;;;;6.95;3.05;;;;;;;;;;6220340;28;20245;-70
2022/06/09 19:43:58;;;;;;;4.07;3.05;;;;;;;;;;6213934;28;20248;-70
2022/06/09 19:47:20;;;;;;;6.22;3.63;;;;;;;;;;6219574;28;20232;-70
2022/06/09 19:50:42;;;;;;;5.60;2.75;;;;;;;;;;6213481;28;20251;-69
2022/06/09 19:54:04;;;;;;;6.40;3.30;;;;;;;;;;6219371;28;20812;-69
2022/06/09 19:57:25;;;;;;;6.20;3.00;;;;;;;;;;6214326;28;20658;-71
2022/06/09 20:00:46;;;;;;;6.20;2.60;;;;;;;;;;6211151;28;20233;-70
2022/06/09 20:04:07;;;;;;;5.20;2.75;;;;;;;;;;6227534;28;20229;-71
2022/06/09 20:07:28;;;;;;;6.97;3.17;;;;;;;;;;6225837;28;20224;-70
2022/06/09 20:10:50;;;;;;;4.22;2.65;;;;;;;;;;6225870;28;20248;-69
2022/06/09 20:14:10;;;;;;;9.88;4.05;;;;;;;;;;6215378;28;20229;-71
2022/06/09 20:17:31;;;;;;;6.03;3.10;;;;;;;;;;6214306;28;20232;-71
2022/06/09 20:20:53;;;;;;;6.30;2.97;;;;;;;;;;6218277;28;20237;-71
2022/06/09 20:24:14;;;;;;;4.93;2.80;;;;;;;;;;6219883;28;20236;-71
2022/06/09 20:27:36;;;;;;;6.43;3.75;;;;;;;;;;6207034;28;20228;-71
2022/06/09 20:30:57;;;;;;;4.68;2.55;;;;;;;;;;6214299;28;20299;-71
2022/06/09 20:34:18;;;;;;;8.32;4.18;;;;;;;;;;6209102;28;20224;-72